Time;durP1;ratioP1;P1;durP2;ratioP2;P2;SDS_P1;SDS_P2;PMS_P1;PMS_P2;Temp;Humidity;BMP_temperature;BMP_pressure;BME280_temperature;BME280_humidity;BME280_pressure;Samples;Min_cycle;Max_cycle;Signal;HPM_P1;HPM_P2
2022/09/07 00:00:10;;;;;;;12.70;10.15;;;16.80;99.90;;;;;;5053441;28;20106;-61
2022/09/07 00:02:36;;;;;;;15.60;10.07;;;16.90;99.90;;;;;;5059133;28;20047;-62
2022/09/07 00:05:01;;;;;;;14.60;10.27;;;16.90;99.90;;;;;;5039649;28;20468;-61
2022/09/07 00:07:27;;;;;;;14.15;10.75;;;16.90;99.90;;;;;;5063822;28;20358;-62
2022/09/07 00:09:52;;;;;;;12.32;10.30;;;16.90;99.90;;;;;;5069078;28;20041;-61
2022/09/07 00:12:18;;;;;;;10.70;9.60;;;16.90;99.90;;;;;;5067235;28;20052;-61
2022/09/07 00:14:44;;;;;;;13.93;10.90;;;16.90;99.90;;;;;;5061926;28;20056;-61
2022/09/07 00:17:09;;;;;;;14.35;10.75;;;16.90;99.90;;;;;;5054512;28;20404;-61
2022/09/07 00:19:35;;;;;;;13.90;10.70;;;16.90;99.90;;;;;;5065318;28;20040;-61
2022/09/07 00:22:00;;;;;;;15.13;10.57;;;16.90;99.90;;;;;;5064437;28;20040;-60
2022/09/07 00:24:26;;;;;;;14.23;10.90;;;16.80;99.90;;;;;;5058202;28;20067;-61
2022/09/07 00:26:54;;;;;;;13.35;10.57;;;16.80;99.90;;;;;;5068879;28;20115;-61
2022/09/07 00:29:20;;;;;;;19.27;9.82;;;16.80;99.90;;;;;;5066951;28;20032;-61
2022/09/07 00:31:46;;;;;;;12.68;9.27;;;16.70;99.90;;;;;;5067597;28;20690;-61
2022/09/07 00:34:11;;;;;;;13.13;10.15;;;16.80;99.90;;;;;;5066894;28;20051;-61
2022/09/07 00:36:37;;;;;;;13.73;10.57;;;16.80;99.90;;;;;;5031177;28;20032;-61
2022/09/07 00:39:03;;;;;;;14.25;10.18;;;16.80;99.90;;;;;;5061099;28;20507;-60
2022/09/07 00:41:29;;;;;;;15.18;10.30;;;16.80;99.90;;;;;;5048144;28;20037;-61
2022/09/07 00:43:57;;;;;;;13.07;9.73;;;16.80;99.90;;;;;;5069269;28;20150;-61
2022/09/07 00:46:26;;;;;;;13.20;9.85;;;16.80;99.90;;;;;;5066782;28;20044;-61
2022/09/07 00:49:11;;;;;;;14.95;9.32;;;16.80;99.90;;;;;;5060180;28;20033;-61
2022/09/07 00:51:57;;;;;;;10.80;8.88;;;16.80;99.90;;;;;;5059914;28;20112;-61
2022/09/07 00:54:28;;;;;;;15.85;10.20;;;16.90;99.90;;;;;;5064612;28;20084;-61
2022/09/07 00:56:54;;;;;;;16.23;9.80;;;16.90;99.90;;;;;;5058049;28;20040;-61
2022/09/07 00:59:24;;;;;;;11.95;9.98;;;16.90;99.90;;;;;;5060604;28;20131;-62
2022/09/07 01:01:50;;;;;;;15.03;10.67;;;16.80;99.90;;;;;;5058960;28;20496;-61
2022/09/07 01:04:16;;;;;;;14.98;10.77;;;16.70;99.90;;;;;;5065639;28;20076;-61
2022/09/07 01:06:42;;;;;;;16.20;10.98;;;16.70;99.90;;;;;;5063074;28;20627;-62
2022/09/07 01:09:11;;;;;;;15.48;11.40;;;16.60;99.90;;;;;;5064349;28;20075;-62
2022/09/07 01:11:38;;;;;;;15.70;11.05;;;16.40;99.90;;;;;;5060391;28;20070;-62
2022/09/07 01:14:08;;;;;;;14.57;11.07;;;16.40;99.90;;;;;;5063400;28;20041;-61
2022/09/07 01:16:44;;;;;;;14.23;11.32;;;16.40;99.90;;;;;;5063398;28;20056;-63
2022/09/07 01:20:09;;;;;;;14.75;11.68;;;16.30;99.90;;;;;;5070524;28;20683;-62
2022/09/07 01:22:58;;;;;;;25.92;13.10;;;16.30;99.90;;;;;;5000668;28;20539;-63
2022/09/07 01:25:46;;;;;;;19.92;12.88;;;16.10;99.90;;;;;;5064425;28;20435;-62
2022/09/07 01:28:26;;;;;;;22.45;14.65;;;16.10;99.90;;;;;;5060161;28;20572;-62
2022/09/07 01:31:16;;;;;;;61.40;18.77;;;15.60;99.90;;;;;;5061435;28;20028;-62
2022/09/07 01:34:04;;;;;;;28.85;17.80;;;16.20;99.90;;;;;;5059204;28;20464;-63
2022/09/07 01:36:52;;;;;;;29.65;16.83;;;15.60;99.90;;;;;;5060595;28;20045;-62
2022/09/07 01:39:22;;;;;;;25.10;16.63;;;16.40;99.90;;;;;;5064798;28;20037;-63
2022/09/07 01:41:52;;;;;;;24.67;17.02;;;16.00;99.90;;;;;;5067048;28;20044;-63
2022/09/07 01:44:28;;;;;;;24.17;17.05;;;16.50;99.90;;;;;;5071662;28;20051;-63
2022/09/07 01:47:22;;;;;;;26.75;17.25;;;16.70;99.90;;;;;;5071785;28;20044;-63
2022/09/07 01:49:54;;;;;;;28.80;18.08;;;16.40;99.90;;;;;;5068404;28;20097;-63
2022/09/07 01:52:25;;;;;;;30.50;18.67;;;16.30;99.90;;;;;;5068394;28;20040;-63
2022/09/07 01:54:57;;;;;;;25.63;17.48;;;16.10;99.90;;;;;;5070713;28;20036;-63
2022/09/07 01:57:34;;;;;;;32.88;18.48;;;16.20;99.90;;;;;;5067642;28;20094;-62
2022/09/07 02:00:13;;;;;;;30.00;20.67;;;16.60;99.90;;;;;;5073698;28;20045;-63
2022/09/07 02:02:53;;;;;;;26.58;19.40;;;16.10;99.90;;;;;;5071450;28;20090;-62
2022/09/07 02:05:33;;;;;;;24.88;16.00;;;16.20;99.90;;;;;;5060469;28;20032;-62
2022/09/07 02:08:06;;;;;;;36.08;20.75;;;16.40;99.90;;;;;;5065035;28;20041;-62
2022/09/07 02:10:39;;;;;;;30.48;18.90;;;16.00;99.90;;;;;;5055604;28;20106;-62
2022/09/07 02:13:14;;;;;;;28.65;19.33;;;16.00;99.90;;;;;;5071961;28;20392;-61
2022/09/07 02:15:59;;;;;;;27.65;18.88;;;16.30;99.90;;;;;;5063114;28;20047;-62
2022/09/07 02:18:31;;;;;;;25.95;19.15;;;16.40;99.90;;;;;;5071385;28;20507;-62
2022/09/07 02:21:00;;;;;;;29.70;21.15;;;16.00;99.90;;;;;;5070202;28;20414;-62
2022/09/07 02:23:36;;;;;;;37.63;22.77;;;16.20;99.90;;;;;;5070177;28;20051;-62
2022/09/07 02:26:04;;;;;;;32.53;19.52;;;16.20;99.90;;;;;;5053065;28;20040;-62
2022/09/07 02:28:34;;;;;;;27.35;18.38;;;16.30;99.90;;;;;;5054948;28;20025;-62
2022/09/07 02:31:00;;;;;;;32.92;21.50;;;16.20;99.90;;;;;;5071581;28;20046;-62
2022/09/07 02:33:26;;;;;;;28.05;20.13;;;16.20;99.90;;;;;;5070545;28;20266;-62
2022/09/07 02:35:52;;;;;;;33.72;21.08;;;16.00;99.90;;;;;;5066362;28;20837;-62
2022/09/07 02:38:18;;;;;;;28.73;20.30;;;16.10;99.90;;;;;;5070680;28;20044;-62
2022/09/07 02:40:51;;;;;;;27.42;20.08;;;16.50;99.90;;;;;;5051639;28;20059;-61
2022/09/07 02:43:17;;;;;;;30.35;20.38;;;16.40;99.90;;;;;;5067149;28;20086;-61
2022/09/07 02:46:04;;;;;;;28.77;20.23;;;16.30;99.90;;;;;;5066006;28;20033;-61
2022/09/07 02:48:54;;;;;;;26.58;19.30;;;16.10;99.90;;;;;;5067892;28;20464;-62
2022/09/07 02:51:31;;;;;;;29.08;20.92;;;16.50;99.90;;;;;;5061124;28;20135;-62
2022/09/07 02:54:12;;;;;;;28.75;20.05;;;16.00;99.90;;;;;;5069331;28;20401;-62
2022/09/07 02:56:42;;;;;;;;;;;15.90;99.90;;;;;;5069182;28;20093;-62
2022/09/07 02:59:17;;;;;;;35.55;21.88;;;15.80;99.90;;;;;;5047640;28;19970;-62
2022/09/07 03:01:51;;;;;;;25.95;20.02;;;15.90;99.90;;;;;;5066362;28;20124;-62
2022/09/07 03:04:55;;;;;;;31.33;20.73;;;16.20;99.90;;;;;;5048755;28;20041;-62
2022/09/07 03:07:36;;;;;;;32.42;21.23;;;16.50;99.90;;;;;;4994625;28;20049;-62
2022/09/07 03:10:05;;;;;;;34.97;21.88;;;16.30;99.90;;;;;;5047328;28;20049;-62
2022/09/07 03:12:48;;;;;;;29.88;21.75;;;16.40;99.90;;;;;;5069219;28;20037;-62
2022/09/07 03:15:19;;;;;;;32.53;21.25;;;16.00;99.90;;;;;;5062169;28;20043;-62
2022/09/07 03:17:45;;;;;;;33.97;20.98;;;15.90;99.90;;;;;;5069257;28;20051;-62
2022/09/07 03:20:11;;;;;;;28.33;20.80;;;15.90;99.90;;;;;;5037828;28;20048;-62
2022/09/07 03:22:37;;;;;;;27.90;20.65;;;15.80;99.90;;;;;;5063738;28;20388;-62
2022/09/07 03:25:03;;;;;;;30.70;21.02;;;15.90;99.90;;;;;;5051176;28;20051;-62
2022/09/07 03:27:30;;;;;;;24.42;18.95;;;15.90;99.90;;;;;;5055436;28;20123;-62
2022/09/07 03:29:57;;;;;;;28.08;20.73;;;16.30;99.90;;;;;;5048953;28;20039;-62
2022/09/07 03:32:22;;;;;;;26.63;19.27;;;15.70;99.90;;;;;;5063079;28;20033;-62
2022/09/07 03:34:48;;;;;;;27.30;19.45;;;15.90;99.90;;;;;;5067642;28;20063;-62
2022/09/07 03:37:14;;;;;;;29.27;20.77;;;16.20;99.90;;;;;;5069067;28;20109;-62
2022/09/07 03:39:39;;;;;;;27.33;19.42;;;16.00;99.90;;;;;;5038168;28;20158;-62
2022/09/07 03:42:05;;;;;;;26.40;18.88;;;15.80;99.90;;;;;;5067815;28;20039;-63
2022/09/07 03:44:31;;;;;;;31.52;22.00;;;16.10;99.90;;;;;;5069829;28;20170;-62
2022/09/07 03:46:57;;;;;;;29.98;20.10;;;15.90;99.90;;;;;;5069071;28;20029;-62
2022/09/07 03:49:22;;;;;;;33.00;22.10;;;15.90;99.90;;;;;;5060701;28;20056;-63
2022/09/07 03:51:48;;;;;;;29.48;21.55;;;16.00;99.90;;;;;;5062031;28;20043;-62
2022/09/07 03:54:13;;;;;;;27.50;21.02;;;15.90;99.90;;;;;;5070673;28;20475;-62
2022/09/07 03:56:39;;;;;;;30.10;20.33;;;16.00;99.90;;;;;;5061836;28;20043;-63
2022/09/07 03:59:04;;;;;;;23.60;18.80;;;15.80;99.90;;;;;;5061652;28;20125;-63
2022/09/07 04:01:30;;;;;;;25.77;19.77;;;16.00;99.90;;;;;;5065764;28;20044;-63
2022/09/07 04:03:58;;;;;;;31.02;21.95;;;16.30;99.90;;;;;;5066099;28;20054;-62
2022/09/07 04:06:24;;;;;;;30.70;21.90;;;16.30;99.90;;;;;;5066362;28;20043;-62
2022/09/07 04:08:49;;;;;;;40.50;24.08;;;16.30;99.90;;;;;;5066792;28;20029;-62
2022/09/07 04:11:17;;;;;;;31.33;21.85;;;15.80;99.90;;;;;;5066282;28;20056;-62
2022/09/07 04:13:44;;;;;;;29.88;22.77;;;15.80;99.90;;;;;;5068292;28;20041;-63
2022/09/07 04:16:18;;;;;;;36.60;23.92;;;15.70;99.90;;;;;;5068260;28;20044;-63
2022/09/07 04:18:45;;;;;;;36.45;23.23;;;15.80;99.90;;;;;;5068624;28;20139;-62
2022/09/07 04:21:11;;;;;;;39.13;25.38;;;15.80;99.90;;;;;;5065940;28;20041;-62
2022/09/07 04:23:41;;;;;;;33.92;23.40;;;15.60;99.90;;;;;;5030995;28;20063;-62
2022/09/07 04:26:12;;;;;;;34.35;24.80;;;15.80;99.90;;;;;;5066190;28;20120;-62
2022/09/07 04:28:38;;;;;;;36.15;24.83;;;15.70;99.90;;;;;;5058943;28;20036;-62
2022/09/07 04:31:04;;;;;;;37.80;27.27;;;15.50;99.90;;;;;;5067524;28;20127;-62
2022/09/07 04:33:30;;;;;;;36.25;25.58;;;15.50;99.90;;;;;;5064626;28;20069;-62
2022/09/07 04:35:59;;;;;;;36.95;24.60;;;15.60;99.90;;;;;;5065161;28;20098;-63
2022/09/07 04:38:24;;;;;;;41.55;26.27;;;15.60;99.90;;;;;;5064631;28;20032;-61
2022/09/07 04:41:01;;;;;;;41.13;26.23;;;15.40;99.90;;;;;;5063124;28;20873;-62
2022/09/07 04:43:27;;;;;;;37.22;25.77;;;15.40;99.90;;;;;;5065079;28;20040;-61
2022/09/07 04:45:53;;;;;;;36.00;24.42;;;15.50;99.90;;;;;;5065437;28;20464;-62
2022/09/07 04:48:18;;;;;;;33.42;24.08;;;15.30;99.90;;;;;;5051609;28;20032;-62
2022/09/07 04:50:44;;;;;;;42.38;26.65;;;15.50;99.90;;;;;;5065573;28;20087;-62
2022/09/07 04:53:09;;;;;;;33.83;24.05;;;15.60;99.90;;;;;;5045325;28;20037;-61
2022/09/07 04:55:35;;;;;;;33.30;23.63;;;15.40;99.90;;;;;;5060886;28;20052;-63
2022/09/07 04:58:01;;;;;;;39.17;25.48;;;15.30;99.90;;;;;;5068614;28;20039;-62
2022/09/07 05:00:26;;;;;;;36.63;24.80;;;15.30;99.90;;;;;;5068277;28;20040;-62
2022/09/07 05:02:52;;;;;;;43.67;26.25;;;15.20;99.90;;;;;;5048663;28;20506;-62
2022/09/07 05:05:17;;;;;;;38.90;26.52;;;15.50;99.90;;;;;;5056346;28;20040;-60
2022/09/07 05:07:43;;;;;;;45.28;28.52;;;15.50;99.90;;;;;;5057707;28;20040;-62
2022/09/07 05:10:09;;;;;;;39.60;25.80;;;15.20;99.90;;;;;;5050836;28;20056;-61
2022/09/07 05:12:35;;;;;;;38.50;25.17;;;15.40;99.90;;;;;;5063396;28;20567;-63
2022/09/07 05:15:00;;;;;;;38.38;25.90;;;15.40;99.90;;;;;;5064077;28;20043;-62
2022/09/07 05:17:27;;;;;;;37.50;25.25;;;15.40;99.90;;;;;;5066777;28;20046;-62
2022/09/07 05:19:53;;;;;;;36.28;25.05;;;15.30;99.90;;;;;;5033559;28;20074;-62
2022/09/07 05:22:19;;;;;;;36.40;25.20;;;15.40;99.90;;;;;;5053817;28;20400;-63
2022/09/07 05:24:46;;;;;;;33.80;24.08;;;15.70;99.90;;;;;;5069771;28;20036;-63
2022/09/07 05:27:12;;;;;;;41.45;28.05;;;15.40;99.90;;;;;;5067820;28;20048;-63
2022/09/07 05:29:37;;;;;;;34.28;25.38;;;15.50;99.90;;;;;;5054231;28;20396;-63
2022/09/07 05:32:03;;;;;;;38.10;26.08;;;15.60;99.90;;;;;;5051833;28;20047;-63
2022/09/07 05:34:28;;;;;;;45.10;27.65;;;15.60;99.90;;;;;;5052492;28;20496;-63
2022/09/07 05:36:54;;;;;;;42.10;26.63;;;15.70;99.90;;;;;;5070829;28;20052;-63
2022/09/07 05:39:20;;;;;;;35.38;24.48;;;15.70;99.90;;;;;;5053228;28;20055;-62
2022/09/07 05:41:45;;;;;;;36.08;24.67;;;15.40;99.90;;;;;;5057300;28;20094;-63
2022/09/07 05:44:11;;;;;;;42.45;28.17;;;15.40;99.90;;;;;;5057051;28;20055;-63
2022/09/07 05:46:37;;;;;;;39.85;26.92;;;15.60;99.90;;;;;;5057301;28;20037;-62
2022/09/07 05:49:03;;;;;;;42.08;26.65;;;15.70;99.90;;;;;;5060281;28;20111;-62
2022/09/07 05:51:29;;;;;;;34.20;24.88;;;15.70;99.90;;;;;;5058231;28;20071;-62
2022/09/07 05:53:55;;;;;;;39.42;26.27;;;15.40;99.90;;;;;;5056276;28;20177;-63
2022/09/07 05:56:21;;;;;;;39.58;26.92;;;15.60;99.90;;;;;;5029136;28;20049;-63
2022/09/07 05:58:48;;;;;;;40.92;25.83;;;15.40;99.90;;;;;;5056199;28;20398;-63
2022/09/07 06:01:14;;;;;;;39.63;26.38;;;15.80;99.90;;;;;;5055901;28;20040;-63
2022/09/07 06:03:40;;;;;;;38.80;25.02;;;15.60;99.90;;;;;;5055550;28;20608;-63
2022/09/07 06:06:12;;;;;;;34.83;25.55;;;15.80;99.90;;;;;;5056137;28;20041;-63
2022/09/07 06:08:42;;;;;;;34.42;25.50;;;15.70;99.90;;;;;;5062118;28;20055;-62
2022/09/07 06:11:10;;;;;;;42.03;25.65;;;15.60;99.90;;;;;;5056439;28;20044;-62
2022/09/07 06:13:36;;;;;;;44.33;27.48;;;15.90;99.90;;;;;;5059613;28;20419;-63
2022/09/07 06:16:03;;;;;;;38.92;27.52;;;15.70;99.90;;;;;;5057809;28;20522;-63
2022/09/07 06:18:43;;;;;;;42.22;28.17;;;15.60;99.90;;;;;;5058487;28;20383;-63
2022/09/07 06:21:11;;;;;;;42.15;27.52;;;15.60;99.90;;;;;;5057655;28;20053;-63
2022/09/07 06:23:39;;;;;;;41.25;27.50;;;15.80;99.90;;;;;;5059563;28;20469;-63
2022/09/07 06:26:05;;;;;;;39.67;26.88;;;15.90;99.90;;;;;;5047140;28;20048;-63
2022/09/07 06:28:36;;;;;;;39.53;26.83;;;16.10;99.90;;;;;;5057913;28;20423;-62
2022/09/07 06:31:06;;;;;;;39.65;26.88;;;15.90;99.90;;;;;;5055677;28;20032;-63
2022/09/07 06:33:32;;;;;;;37.28;26.52;;;15.80;99.90;;;;;;5058722;28;20047;-63
2022/09/07 06:36:01;;;;;;;41.58;27.23;;;15.90;99.90;;;;;;5038900;28;20533;-63
2022/09/07 06:38:32;;;;;;;40.60;27.88;;;16.20;99.90;;;;;;5058785;28;20051;-63
2022/09/07 06:41:01;;;;;;;38.78;27.00;;;16.20;99.90;;;;;;5058188;28;20045;-62
2022/09/07 06:43:27;;;;;;;41.38;28.10;;;16.20;99.90;;;;;;5050762;28;20041;-63
2022/09/07 06:45:55;;;;;;;39.92;28.42;;;16.20;99.90;;;;;;5039605;28;20058;-62
2022/09/07 06:48:21;;;;;;;38.45;26.65;;;16.30;99.90;;;;;;5057910;28;20037;-63
2022/09/07 06:51:25;;;;;;;38.33;27.48;;;16.70;99.90;;;;;;5057015;28;20047;-62
2022/09/07 06:53:53;;;;;;;33.83;25.85;;;16.70;99.90;;;;;;5059144;28;20461;-62
2022/09/07 06:56:19;;;;;;;36.58;25.77;;;16.60;99.90;;;;;;5059114;28;20098;-63
2022/09/07 06:58:45;;;;;;;39.13;27.48;;;16.50;99.90;;;;;;5046512;28;20041;-63
2022/09/07 07:01:13;;;;;;;36.25;25.90;;;16.60;99.90;;;;;;5050613;28;20033;-61
2022/09/07 07:03:40;;;;;;;38.78;27.60;;;16.80;99.90;;;;;;5054969;28;20051;-62
2022/09/07 07:06:06;;;;;;;34.53;26.45;;;16.60;99.90;;;;;;5049459;28;20507;-63
2022/09/07 07:08:32;;;;;;;35.53;26.15;;;16.80;99.90;;;;;;5049991;28;20385;-63
2022/09/07 07:11:02;;;;;;;35.97;26.92;;;16.90;99.90;;;;;;5047426;28;20048;-62
2022/09/07 07:13:28;;;;;;;34.92;26.20;;;16.70;99.90;;;;;;5056718;28;20044;-63
2022/09/07 07:16:11;;;;;;;34.83;26.15;;;16.90;99.90;;;;;;5060217;28;20062;-62
2022/09/07 07:18:37;;;;;;;33.45;26.02;;;16.80;99.90;;;;;;5056821;28;24644;-63
2022/09/07 07:21:04;;;;;;;38.08;27.88;;;16.80;99.90;;;;;;5054320;28;20040;-62
2022/09/07 07:23:30;;;;;;;35.92;26.05;;;16.60;99.90;;;;;;5058698;28;20045;-62
2022/09/07 07:26:01;;;;;;;37.08;27.15;;;16.70;99.90;;;;;;5057283;28;20044;-63
2022/09/07 07:28:27;;;;;;;35.92;26.10;;;16.70;99.90;;;;;;5059227;28;20063;-62
2022/09/07 07:30:57;;;;;;;40.47;27.58;;;16.80;99.90;;;;;;5037218;28;22590;-62
2022/09/07 07:33:23;;;;;;;33.00;24.98;;;16.70;99.90;;;;;;5056626;28;20032;-62
2022/09/07 07:35:48;;;;;;;35.33;25.45;;;17.10;99.90;;;;;;5043932;28;20685;-62
2022/09/07 07:38:14;;;;;;;34.42;24.67;;;16.90;99.90;;;;;;5058090;28;20048;-63
2022/09/07 07:40:39;;;;;;;34.75;25.02;;;16.90;99.90;;;;;;5038500;28;20392;-62
2022/09/07 07:43:05;;;;;;;35.88;24.23;;;17.10;99.90;;;;;;5055767;28;20392;-63
2022/09/07 07:45:30;;;;;;;29.30;22.73;;;17.20;99.90;;;;;;5055544;28;20626;-62
2022/09/07 07:47:56;;;;;;;33.58;23.67;;;16.90;99.90;;;;;;5057094;28;20037;-62
2022/09/07 07:50:22;;;;;;;32.88;23.15;;;17.10;99.90;;;;;;5054369;28;20106;-62
2022/09/07 07:52:47;;;;;;;29.38;22.08;;;17.20;99.90;;;;;;5055636;28;20070;-63
2022/09/07 07:55:13;;;;;;;36.60;25.35;;;17.30;99.90;;;;;;5057237;28;20048;-62
2022/09/07 07:57:38;;;;;;;33.63;24.63;;;17.30;99.90;;;;;;5054564;28;20448;-63
2022/09/07 08:00:05;;;;;;;36.28;24.40;;;17.40;99.90;;;;;;5056231;28;20043;-62
2022/09/07 08:02:31;;;;;;;34.05;23.65;;;17.20;99.90;;;;;;5054790;28;20081;-62
2022/09/07 08:04:56;;;;;;;32.13;24.73;;;17.20;99.90;;;;;;5045915;28;20032;-63
2022/09/07 08:07:22;;;;;;;30.38;23.17;;;17.40;99.90;;;;;;5046909;28;20538;-62
2022/09/07 08:09:48;;;;;;;33.25;22.85;;;17.40;99.90;;;;;;5050228;28;20080;-62
2022/09/07 08:12:18;;;;;;;31.33;23.55;;;17.10;99.90;;;;;;5067496;28;20052;-62
2022/09/07 08:14:46;;;;;;;32.22;23.02;;;17.10;99.90;;;;;;5061067;28;20037;-62
2022/09/07 08:17:13;;;;;;;31.13;23.23;;;17.20;99.90;;;;;;5060686;28;20052;-61
2022/09/07 08:19:40;;;;;;;30.58;22.80;;;17.30;99.90;;;;;;5067772;28;20036;-62
2022/09/07 08:22:07;;;;;;;33.78;23.75;;;17.30;99.90;;;;;;5066920;28;20086;-62
2022/09/07 08:24:33;;;;;;;32.03;23.25;;;17.50;99.90;;;;;;5067872;28;20086;-62
2022/09/07 08:26:59;;;;;;;36.22;23.75;;;17.30;99.90;;;;;;5045081;28;20091;-61
2022/09/07 08:29:25;;;;;;;33.75;23.23;;;17.40;99.90;;;;;;5064786;28;20035;-61
2022/09/07 08:31:50;;;;;;;31.20;22.05;;;17.50;99.90;;;;;;5056719;28;20072;-62
2022/09/07 08:34:16;;;;;;;33.67;22.48;;;17.50;99.90;;;;;;5058023;28;20040;-62
2022/09/07 08:36:41;;;;;;;27.05;20.98;;;17.60;99.90;;;;;;5058087;28;20033;-62
2022/09/07 08:39:07;;;;;;;30.23;21.38;;;17.40;99.90;;;;;;5067239;28;20040;-62
2022/09/07 08:41:55;;;;;;;31.20;22.50;;;17.80;99.90;;;;;;5066885;28;20038;-61
2022/09/07 08:44:44;;;;;;;30.52;21.75;;;17.80;99.90;;;;;;5071292;28;20087;-61
2022/09/07 08:47:32;;;;;;;33.13;23.10;;;17.80;99.90;;;;;;5051851;28;20044;-61
2022/09/07 08:50:10;;;;;;;34.05;22.55;;;17.70;99.90;;;;;;5060801;28;20511;-62
2022/09/07 08:52:46;;;;;;;36.63;25.30;;;17.90;99.90;;;;;;5066100;28;20032;-61
2022/09/07 08:55:27;;;;;;;34.60;23.90;;;17.80;99.90;;;;;;5065644;28;20098;-63
2022/09/07 08:58:21;;;;;;;33.25;22.15;;;18.00;99.90;;;;;;5038876;28;20052;-62
2022/09/07 09:00:49;;;;;;;33.90;23.90;;;17.90;99.90;;;;;;5062475;28;20032;-62
2022/09/07 09:03:24;;;;;;;32.35;23.17;;;18.10;99.90;;;;;;5068578;28;20045;-61
2022/09/07 09:06:08;;;;;;;35.65;23.80;;;18.20;99.90;;;;;;5069897;28;20054;-61
2022/09/07 09:08:43;;;;;;;33.35;23.40;;;18.40;99.90;;;;;;5051653;28;20448;-62
2022/09/07 09:11:43;;;;;;;34.33;23.73;;;18.20;99.90;;;;;;5059240;28;20045;-62
2022/09/07 09:14:42;;;;;;;29.58;21.52;;;18.30;99.90;;;;;;5068061;28;20044;-61
2022/09/07 09:17:26;;;;;;;35.35;25.02;;;18.30;99.90;;;;;;5058180;28;20048;-61
2022/09/07 09:20:06;;;;;;;34.22;24.10;;;18.60;99.90;;;;;;5060143;28;20051;-62
2022/09/07 09:22:33;;;;;;;31.17;22.33;;;18.90;99.90;;;;;;5063423;28;20044;-63
2022/09/07 09:25:13;;;;;;;35.15;23.17;;;18.60;99.90;;;;;;5064077;28;20045;-62
2022/09/07 09:27:38;;;;;;;28.70;21.63;;;18.80;99.90;;;;;;5062432;28;20116;-62
2022/09/07 09:30:16;;;;;;;28.52;21.13;;;18.80;99.90;;;;;;5052281;28;20139;-62
2022/09/07 09:32:44;;;;;;;27.10;19.98;;;18.60;99.90;;;;;;5067764;28;20123;-63
2022/09/07 09:35:19;;;;;;;28.80;20.08;;;18.80;99.90;;;;;;5050008;28;20175;-61
2022/09/07 09:37:44;;;;;;;28.23;19.95;;;19.10;99.90;;;;;;5050324;28;20473;-61
2022/09/07 09:40:29;;;;;;;22.75;18.40;;;19.20;99.90;;;;;;5039836;28;20068;-61
2022/09/07 09:43:16;;;;;;;27.45;19.50;;;19.30;99.90;;;;;;5062470;28;20073;-61
2022/09/07 09:45:45;;;;;;;24.40;17.35;;;19.30;99.90;;;;;;5065112;28;20059;-61
2022/09/07 09:48:19;;;;;;;19.92;16.50;;;19.40;99.90;;;;;;5068960;28;20072;-61
2022/09/07 09:50:48;;;;;;;22.00;16.98;;;19.40;99.90;;;;;;5056912;28;20029;-61
2022/09/07 09:53:28;;;;;;;21.23;16.23;;;19.50;99.90;;;;;;5045913;28;20159;-62
2022/09/07 09:55:54;;;;;;;20.90;15.63;;;19.70;99.90;;;;;;5055432;28;21802;-63
2022/09/07 09:58:36;;;;;;;20.65;15.02;;;19.60;99.90;;;;;;5066655;28;20723;-61
2022/09/07 10:01:01;;;;;;;22.40;16.15;;;19.90;99.90;;;;;;5046998;28;20440;-61
2022/09/07 10:03:29;;;;;;;20.33;15.40;;;19.70;99.90;;;;;;5061932;28;20128;-62
2022/09/07 10:05:55;;;;;;;19.30;14.95;;;19.80;99.90;;;;;;5053114;28;20408;-61
2022/09/07 10:08:27;;;;;;;21.65;13.32;;;19.70;99.90;;;;;;5073092;28;20078;-62
2022/09/07 10:11:12;;;;;;;17.15;13.13;;;19.60;99.90;;;;;;5073485;28;20399;-62
2022/09/07 10:13:56;;;;;;;17.30;14.05;;;19.90;99.90;;;;;;5071645;28;20389;-61
2022/09/07 10:16:37;;;;;;;17.40;14.20;;;19.80;99.90;;;;;;5070145;28;20033;-61
2022/09/07 10:19:03;;;;;;;15.80;13.50;;;19.70;99.90;;;;;;5073196;28;20048;-61
2022/09/07 10:21:30;;;;;;;17.50;13.45;;;19.70;99.90;;;;;;5070382;28;20139;-61
2022/09/07 10:24:21;;;;;;;19.48;13.43;;;19.60;99.90;;;;;;5064965;28;20071;-60
2022/09/07 10:26:47;;;;;;;15.35;12.23;;;19.90;99.90;;;;;;5055952;28;20091;-62
2022/09/07 10:29:16;;;;;;;14.85;12.23;;;20.00;99.90;;;;;;5062351;28;20076;-62
2022/09/07 10:32:13;;;;;;;16.05;11.57;;;20.20;99.90;;;;;;5073664;28;20029;-61
2022/09/07 10:34:58;;;;;;;15.35;12.05;;;20.20;99.90;;;;;;5070554;28;20040;-61
2022/09/07 10:37:55;;;;;;;13.68;10.70;;;20.30;99.90;;;;;;5072361;28;20361;-61
2022/09/07 10:40:41;;;;;;;17.30;10.82;;;20.20;99.90;;;;;;5056778;28;20059;-61
2022/09/07 10:43:25;;;;;;;13.13;10.57;;;20.20;99.90;;;;;;5056902;28;20048;-61
2022/09/07 10:46:14;;;;;;;13.55;11.20;;;20.40;99.90;;;;;;5072944;28;20396;-60
2022/09/07 10:49:34;;;;;;;13.57;10.60;;;20.30;99.90;;;;;;5074613;28;20039;-61
2022/09/07 10:52:18;;;;;;;11.43;9.82;;;20.40;99.90;;;;;;4991120;28;20038;-61
2022/09/07 10:55:03;;;;;;;11.35;9.23;;;20.40;99.90;;;;;;5066923;28;20715;-60
2022/09/07 10:57:47;;;;;;;11.43;9.27;;;20.60;99.90;;;;;;5073747;28;20052;-60
2022/09/07 11:00:18;;;;;;;10.50;8.45;;;20.80;99.90;;;;;;5069056;28;20056;-61
2022/09/07 11:03:05;;;;;;;8.95;7.78;;;20.90;99.90;;;;;;5067092;28;20052;-60
2022/09/07 11:05:43;;;;;;;9.55;7.55;;;21.10;99.90;;;;;;5066928;28;20049;-62
2022/09/07 11:08:26;;;;;;;8.95;6.82;;;21.30;99.90;;;;;;5066263;28;20045;-60
2022/09/07 11:11:09;;;;;;;8.80;7.03;;;21.40;99.90;;;;;;5065828;28;20458;-60
2022/09/07 11:13:40;;;;;;;7.13;5.75;;;21.50;99.90;;;;;;5044195;28;20084;-60
2022/09/07 11:16:13;;;;;;;8.05;6.75;;;21.40;99.90;;;;;;5072629;28;20480;-61
2022/09/07 11:18:49;;;;;;;7.18;6.47;;;21.50;99.90;;;;;;5054935;28;20036;-61
2022/09/07 11:21:19;;;;;;;7.43;5.63;;;21.60;99.90;;;;;;5065098;28;20044;-60
2022/09/07 11:23:53;;;;;;;7.00;5.40;;;21.80;99.90;;;;;;5054809;28;20051;-61
2022/09/07 11:26:26;;;;;;;5.88;5.28;;;22.10;99.90;;;;;;5070607;28;20036;-62
2022/09/07 11:29:13;;;;;;;5.65;4.43;;;22.20;99.90;;;;;;5071778;28;20036;-61
2022/09/07 11:31:46;;;;;;;5.78;4.43;;;22.30;99.90;;;;;;5071202;28;20161;-62
2022/09/07 11:34:40;;;;;;;7.53;4.93;;;22.30;99.90;;;;;;5062762;28;20055;-62
2022/09/07 11:37:19;;;;;;;7.80;5.72;;;22.40;99.90;;;;;;5071608;28;20440;-62
2022/09/07 11:39:58;;;;;;;5.57;4.95;;;22.30;99.90;;;;;;5067300;28;20033;-62
2022/09/07 11:42:34;;;;;;;5.95;5.35;;;22.40;99.90;;;;;;5069437;28;20142;-61
2022/09/07 11:45:15;;;;;;;7.00;4.50;;;22.50;99.90;;;;;;5063987;28;20068;-62
2022/09/07 11:47:48;;;;;;;5.53;4.70;;;22.60;99.90;;;;;;5072719;28;20037;-61
2022/09/07 11:50:21;;;;;;;8.13;4.15;;;22.40;99.90;;;;;;5052312;28;20052;-62
2022/09/07 11:53:05;;;;;;;5.05;4.53;;;22.40;99.90;;;;;;5068142;28;20471;-62
2022/09/07 11:55:36;;;;;;;4.57;4.18;;;22.70;99.90;;;;;;5071958;28;20041;-62
2022/09/07 11:58:17;;;;;;;5.53;3.17;;;22.90;99.90;;;;;;5046933;28;20071;-61
2022/09/07 12:00:58;;;;;;;5.72;3.40;;;23.10;99.90;;;;;;5069433;28;20441;-61
2022/09/07 12:03:54;;;;;;;4.07;3.60;;;23.30;99.90;;;;;;5066532;28;20040;-61
2022/09/07 12:06:32;;;;;;;4.13;3.72;;;23.50;99.90;;;;;;5070417;28;20032;-61
2022/09/07 12:09:22;;;;;;;4.55;3.58;;;23.50;99.90;;;;;;5071977;28;20047;-61
2022/09/07 12:12:03;;;;;;;;;;;23.60;99.00;;;;;;5070028;28;20048;-61
2022/09/07 12:14:47;;;;;;;4.30;3.38;;;23.40;99.90;;;;;;5064635;28;19919;-62
2022/09/07 12:17:51;;;;;;;5.13;3.72;;;23.60;99.60;;;;;;5071425;28;20051;-62
2022/09/07 12:20:19;;;;;;;5.55;3.85;;;23.60;97.50;;;;;;5033489;28;20053;-62
2022/09/07 12:23:02;;;;;;;7.32;3.55;;;23.40;99.70;;;;;;5071236;28;20063;-61
2022/09/07 12:25:29;;;;;;;4.75;3.47;;;23.60;99.90;;;;;;5068406;28;20045;-62
2022/09/07 12:27:56;;;;;;;5.25;3.50;;;23.80;99.90;;;;;;5069201;28;20520;-61
2022/09/07 12:30:22;;;;;;;4.20;3.30;;;23.90;99.70;;;;;;5070628;28;20047;-61
2022/09/07 12:32:48;;;;;;;3.83;3.03;;;24.10;99.40;;;;;;5071063;28;20028;-62
2022/09/07 12:35:32;;;;;;;4.18;3.50;;;24.20;99.20;;;;;;5062269;28;20412;-61
2022/09/07 12:38:29;;;;;;;4.93;3.65;;;24.30;98.50;;;;;;5069870;28;20106;-61
2022/09/07 12:41:22;;;;;;;4.15;2.85;;;24.70;95.30;;;;;;5054025;28;20483;-62
2022/09/07 12:43:47;;;;;;;3.72;2.83;;;25.20;96.30;;;;;;5013835;28;20041;-62
2022/09/07 12:46:19;;;;;;;4.22;3.08;;;26.70;95.60;;;;;;5071110;28;20046;-62
2022/09/07 12:49:03;;;;;;;6.45;3.00;;;28.10;92.90;;;;;;5070082;28;20040;-62
2022/09/07 12:51:34;;;;;;;5.65;3.42;;;30.40;87.30;;;;;;5068414;28;20036;-62
2022/09/07 12:54:05;;;;;;;4.50;3.17;;;31.70;72.00;;;;;;5046988;28;20048;-60
2022/09/07 12:57:00;;;;;;;4.63;3.67;;;32.90;66.80;;;;;;5066327;28;20044;-60